KOFP

Hanover County Municipal Airport

Richmond/Ashland, Virginia, USA
METAR KOFP 170401Z AUTO 00000KT 10SM -RA OVC029 14/12 A3013 RMK AO2 P0001 T01390117
Observed Flight Rules
Oct-17 @ 04:01 UTC (an hour ago) Marginal Visual Flight Rules
Visibility Clouds Conditions
10 miles
  • Overcast at 2,900' AGL
  • Light Rain
Temperatures Readings Precipitation
Current 14°C / 57°F
Dewpoint 12°C / 54°F
Humidity 88%
Altimeter 30.13" Hg
Pressure 1020 hPa
Elevation 62
Current Rain 0.01
METAR KOFP 170401Z AUTO 00000KT 10SM -RA OVC029 14/12 A3013 RMK AO2 P0001 T01390117
Observed Flight Rules
Oct-17 @ 04:01 UTC
(an hour ago)
MVFR
Clouds
  • Overcast at 2,900' AGL
Conditions
  • Light Rain
Temperature Dewpoint
14°C / 57°F 12°C / 54°F
Humidity Altimeter Pressure
88% 30.13" Hg 1020 hPa
Current Rain
0.01